Time;durP1;ratioP1;P1;durP2;ratioP2;P2;SDS_P1;SDS_P2;PMS_P1;PMS_P2;Temp;Humidity;BMP_temperature;BMP_pressure;BME280_temperature;BME280_humidity;BME280_pressure;Samples;Min_cycle;Max_cycle;Signal;HPM_P1;HPM_P2
2022/04/09 00:01:42;;;;;;;3.08;1.27;;;;;;;;;;5087245;28;20672;-79
2022/04/09 00:04:09;;;;;;;3.05;1.20;;;;;;;;;;5084575;28;20202;-79
2022/04/09 00:06:36;;;;;;;6.13;1.50;;;;;;;;;;5069725;28;20198;-78
2022/04/09 00:09:03;;;;;;;3.63;1.33;;;;;;;;;;5082430;28;20197;-78
2022/04/09 00:11:31;;;;;;;6.13;1.35;;;;;;;;;;5073776;28;20229;-78
2022/04/09 00:13:58;;;;;;;4.43;1.30;;;;;;;;;;5075151;28;20216;-79
2022/04/09 00:16:26;;;;;;;2.90;1.80;;;;;;;;;;5081739;28;20585;-78
2022/04/09 00:18:53;;;;;;;4.75;1.98;;;;;;;;;;5078223;28;20193;-78
2022/04/09 00:21:20;;;;;;;2.95;2.10;;;;;;;;;;5070609;28;20195;-78
2022/04/09 00:23:47;;;;;;;2.45;1.50;;;;;;;;;;5082776;28;20201;-79
2022/04/09 00:26:14;;;;;;;6.45;1.98;;;;;;;;;;5081501;28;20212;-79
2022/04/09 00:28:41;;;;;;;3.03;1.80;;;;;;;;;;5079604;28;20221;-79
2022/04/09 00:31:08;;;;;;;1.15;1.05;;;;;;;;;;5079751;28;20205;-78
2022/04/09 00:33:37;;;;;;;2.35;1.10;;;;;;;;;;5072528;28;20202;-79
2022/04/09 00:36:04;;;;;;;2.85;1.38;;;;;;;;;;5072462;28;20563;-78
2022/04/09 00:38:32;;;;;;;3.50;1.02;;;;;;;;;;5074872;28;20213;-79
2022/04/09 00:40:59;;;;;;;4.95;1.20;;;;;;;;;;5074892;28;20205;-79
2022/04/09 00:43:26;;;;;;;4.25;2.05;;;;;;;;;;5078062;28;20313;-79
2022/04/09 00:45:53;;;;;;;4.00;1.70;;;;;;;;;;5079706;28;20290;-79
2022/04/09 00:48:21;;;;;;;4.35;1.40;;;;;;;;;;5084303;28;20205;-78
2022/04/09 00:50:49;;;;;;;2.25;1.40;;;;;;;;;;5076527;28;20701;-78
2022/04/09 00:53:17;;;;;;;2.75;1.25;;;;;;;;;;5075685;28;20248;-78
2022/04/09 00:58:31;;;;;;;4.22;1.83;;;;;;;;;;5076878;28;20200;-79
2022/04/09 01:00:58;;;;;;;2.17;1.25;;;;;;;;;;5078573;28;20282;-79
2022/04/09 01:03:25;;;;;;;3.15;1.25;;;;;;;;;;5085984;28;20214;-79
2022/04/09 01:05:53;;;;;;;2.28;1.17;;;;;;;;;;5074670;28;20201;-79
2022/04/09 01:08:21;;;;;;;4.07;1.90;;;;;;;;;;5089277;28;20194;-79
2022/04/09 01:10:50;;;;;;;3.10;1.65;;;;;;;;;;5076107;28;20205;-79
2022/04/09 01:13:17;;;;;;;3.53;1.20;;;;;;;;;;5077125;28;20255;-80
2022/04/09 01:15:44;;;;;;;2.78;1.30;;;;;;;;;;5080739;28;20713;-79
2022/04/09 01:18:12;;;;;;;1.70;1.30;;;;;;;;;;5088946;28;20201;-79
2022/04/09 01:20:39;;;;;;;4.32;1.40;;;;;;;;;;5085093;28;20653;-79
2022/04/09 01:23:07;;;;;;;6.45;4.10;;;;;;;;;;5077282;28;20561;-79
2022/04/09 01:25:34;;;;;;;4.22;1.20;;;;;;;;;;5085469;28;20198;-80
2022/04/09 01:28:02;;;;;;;2.95;1.23;;;;;;;;;;5083142;28;20224;-79
2022/04/09 01:30:30;;;;;;;4.57;1.50;;;;;;;;;;5085139;28;20206;-80
2022/04/09 01:32:57;;;;;;;3.45;1.20;;;;;;;;;;5077585;28;20202;-79
2022/04/09 01:35:24;;;;;;;4.18;1.50;;;;;;;;;;5083944;28;20205;-80
2022/04/09 01:37:51;;;;;;;1.65;1.23;;;;;;;;;;5080247;28;20201;-79
2022/04/09 01:40:20;;;;;;;1.90;1.40;;;;;;;;;;5079523;28;20200;-79
2022/04/09 01:42:47;;;;;;;2.60;1.27;;;;;;;;;;5077170;28;20577;-79
2022/04/09 01:45:14;;;;;;;2.00;1.35;;;;;;;;;;5076762;28;20198;-79
2022/04/09 01:47:43;;;;;;;2.90;1.73;;;;;;;;;;5076700;28;20198;-78
2022/04/09 01:50:10;;;;;;;1.95;1.27;;;;;;;;;;5079941;28;20239;-79
2022/04/09 01:52:37;;;;;;;2.08;1.10;;;;;;;;;;5081561;28;20193;-78
2022/04/09 01:55:05;;;;;;;9.77;1.73;;;;;;;;;;5081888;28;20205;-78
2022/04/09 01:57:33;;;;;;;1.70;1.35;;;;;;;;;;5075446;28;20203;-78
2022/04/09 02:00:01;;;;;;;3.80;1.65;;;;;;;;;;5083748;28;20608;-78
2022/04/09 02:02:28;;;;;;;4.05;1.42;;;;;;;;;;5080806;28;20210;-78
2022/04/09 02:04:55;;;;;;;4.20;1.50;;;;;;;;;;5083135;28;20201;-79
2022/04/09 02:07:22;;;;;;;4.50;1.50;;;;;;;;;;5079831;28;20197;-79
2022/04/09 02:09:50;;;;;;;5.53;1.88;;;;;;;;;;5079368;28;20208;-79
2022/04/09 02:12:17;;;;;;;2.92;1.60;;;;;;;;;;5079087;28;20194;-80
2022/04/09 02:14:45;;;;;;;4.03;1.27;;;;;;;;;;5088792;28;20213;-79
2022/04/09 02:17:13;;;;;;;1.70;1.45;;;;;;;;;;5082922;28;20568;-79
2022/04/09 02:19:40;;;;;;;3.13;1.50;;;;;;;;;;5080642;28;20281;-79
2022/04/09 02:22:07;;;;;;;6.07;2.35;;;;;;;;;;5082369;28;20201;-79
2022/04/09 02:24:34;;;;;;;1.98;1.42;;;;;;;;;;5089430;28;20288;-79
2022/04/09 02:27:02;;;;;;;2.63;1.52;;;;;;;;;;5081439;28;20190;-79
2022/04/09 02:29:29;;;;;;;3.22;1.70;;;;;;;;;;5079825;28;20233;-79
2022/04/09 02:31:58;;;;;;;3.85;2.22;;;;;;;;;;5078306;28;20653;-79
2022/04/09 02:34:26;;;;;;;3.17;1.70;;;;;;;;;;5080456;28;20206;-78
2022/04/09 02:36:53;;;;;;;2.58;1.60;;;;;;;;;;5080207;28;20197;-78
2022/04/09 02:39:21;;;;;;;3.60;1.42;;;;;;;;;;5084098;28;20568;-78
2022/04/09 02:41:50;;;;;;;3.05;1.30;;;;;;;;;;5079321;28;20716;-78
2022/04/09 02:44:17;;;;;;;2.75;1.55;;;;;;;;;;5088263;28;20259;-79
2022/04/09 02:46:45;;;;;;;3.58;1.80;;;;;;;;;;5079455;28;20217;-79
2022/04/09 02:49:13;;;;;;;3.28;1.30;;;;;;;;;;5076045;28;20661;-79
2022/04/09 02:51:40;;;;;;;8.05;1.80;;;;;;;;;;5070920;28;20190;-77
2022/04/09 02:54:09;;;;;;;4.38;1.45;;;;;;;;;;5083999;28;20185;-76
2022/04/09 02:56:36;;;;;;;4.47;1.40;;;;;;;;;;5085428;28;20718;-76
2022/04/09 02:59:03;;;;;;;4.45;2.33;;;;;;;;;;5072522;28;20198;-76
2022/04/09 03:01:31;;;;;;;6.22;2.30;;;;;;;;;;5075722;28;20194;-76
2022/04/09 03:03:58;;;;;;;4.90;2.00;;;;;;;;;;5076237;28;20232;-77
2022/04/09 03:06:26;;;;;;;5.45;1.73;;;;;;;;;;5077589;28;20206;-76
2022/04/09 03:08:53;;;;;;;5.63;1.75;;;;;;;;;;5085688;28;20198;-78
2022/04/09 03:11:21;;;;;;;5.05;1.70;;;;;;;;;;5077793;28;20278;-76
2022/04/09 03:13:48;;;;;;;8.18;2.83;;;;;;;;;;5081904;28;20194;-75
2022/04/09 03:16:15;;;;;;;1.83;1.10;;;;;;;;;;5083697;28;20194;-76
2022/04/09 03:18:42;;;;;;;5.72;1.83;;;;;;;;;;5083094;28;20280;-74
2022/04/09 03:21:09;;;;;;;7.05;1.70;;;;;;;;;;5071043;28;20285;-75
2022/04/09 03:23:37;;;;;;;8.52;1.85;;;;;;;;;;5074506;28;20213;-75
2022/04/09 03:26:05;;;;;;;6.68;2.05;;;;;;;;;;5078160;28;20209;-77
2022/04/09 03:28:32;;;;;;;5.45;1.75;;;;;;;;;;5075956;28;20723;-74
2022/04/09 03:30:59;;;;;;;3.15;1.55;;;;;;;;;;5083852;28;20205;-76
2022/04/09 03:33:26;;;;;;;4.00;1.55;;;;;;;;;;5075840;28;20821;-77
2022/04/09 03:35:54;;;;;;;6.15;1.70;;;;;;;;;;5080725;28;20206;-76
2022/04/09 03:38:21;;;;;;;6.25;2.20;;;;;;;;;;5084420;28;20204;-75
2022/04/09 03:40:50;;;;;;;2.13;1.50;;;;;;;;;;5078444;28;20205;-75
2022/04/09 03:43:17;;;;;;;5.07;1.80;;;;;;;;;;5085376;28;20688;-76
2022/04/09 03:45:44;;;;;;;2.70;1.35;;;;;;;;;;5073590;28;20194;-75
2022/04/09 03:48:11;;;;;;;4.25;1.88;;;;;;;;;;5080510;28;20197;-75
2022/04/09 03:50:38;;;;;;;8.80;1.70;;;;;;;;;;5082505;28;20201;-74
2022/04/09 03:53:05;;;;;;;4.00;1.70;;;;;;;;;;5078445;28;20194;-74
2022/04/09 03:55:32;;;;;;;10.02;2.20;;;;;;;;;;5085970;28;20213;-75
2022/04/09 03:58:01;;;;;;;3.70;1.85;;;;;;;;;;5076689;28;20285;-75
2022/04/09 04:00:28;;;;;;;3.63;2.05;;;;;;;;;;5076361;28;20202;-75
2022/04/09 04:02:57;;;;;;;6.95;3.47;;;;;;;;;;5091804;28;20214;-77
2022/04/09 04:05:24;;;;;;;3.13;1.95;;;;;;;;;;5090423;28;20208;-76
2022/04/09 04:07:52;;;;;;;7.68;3.05;;;;;;;;;;5077445;28;20201;-74
2022/04/09 04:10:19;;;;;;;4.18;2.00;;;;;;;;;;5085028;28;20641;-77
2022/04/09 04:12:47;;;;;;;5.15;1.80;;;;;;;;;;5075024;28;20203;-75
2022/04/09 04:15:15;;;;;;;2.10;1.63;;;;;;;;;;5082877;28;20669;-76
2022/04/09 04:17:42;;;;;;;4.57;1.92;;;;;;;;;;5081289;28;20193;-75
2022/04/09 04:20:10;;;;;;;3.42;1.70;;;;;;;;;;5076949;28;20202;-77
2022/04/09 04:22:37;;;;;;;4.68;2.10;;;;;;;;;;5070444;28;20205;-76
2022/04/09 04:25:05;;;;;;;4.57;1.70;;;;;;;;;;5072404;28;20198;-77
2022/04/09 04:27:32;;;;;;;8.30;2.03;;;;;;;;;;5081373;28;20699;-76
2022/04/09 04:30:00;;;;;;;6.15;1.75;;;;;;;;;;5084062;28;20559;-75
2022/04/09 04:32:28;;;;;;;2.92;2.00;;;;;;;;;;5076036;28;20718;-76
2022/04/09 04:34:55;;;;;;;7.18;2.00;;;;;;;;;;5082414;28;20191;-76
2022/04/09 04:37:23;;;;;;;4.22;2.25;;;;;;;;;;5078884;28;20206;-76
2022/04/09 04:39:50;;;;;;;7.93;2.30;;;;;;;;;;5072962;28;20198;-75
2022/04/09 04:42:17;;;;;;;2.60;1.45;;;;;;;;;;5073147;28;20194;-76
2022/04/09 04:44:44;;;;;;;4.50;1.65;;;;;;;;;;5071063;28;20222;-75
2022/04/09 04:47:11;;;;;;;6.28;2.80;;;;;;;;;;5080463;28;20197;-75
2022/04/09 04:49:39;;;;;;;5.35;1.83;;;;;;;;;;5088095;28;20201;-75
2022/04/09 04:52:07;;;;;;;5.15;1.70;;;;;;;;;;5078912;28;20198;-76
2022/04/09 04:54:34;;;;;;;7.28;2.05;;;;;;;;;;5087785;28;20208;-75
2022/04/09 04:57:01;;;;;;;3.28;2.40;;;;;;;;;;5087639;28;20235;-75
2022/04/09 04:59:28;;;;;;;2.13;1.42;;;;;;;;;;5081614;28;20205;-75
2022/04/09 05:01:55;;;;;;;1.63;1.48;;;;;;;;;;5069328;28;20668;-76
2022/04/09 05:04:25;;;;;;;5.18;1.67;;;;;;;;;;5079794;28;20604;-74
2022/04/09 05:06:53;;;;;;;3.03;1.90;;;;;;;;;;5088333;28;20202;-75
2022/04/09 05:09:20;;;;;;;4.75;1.60;;;;;;;;;;5077064;28;20202;-75
2022/04/09 05:11:47;;;;;;;4.70;1.92;;;;;;;;;;5079203;28;20244;-76
2022/04/09 05:14:14;;;;;;;3.95;1.63;;;;;;;;;;5078670;28;20556;-77
2022/04/09 05:16:42;;;;;;;4.38;2.55;;;;;;;;;;5081066;28;20204;-75
2022/04/09 05:19:09;;;;;;;3.83;1.80;;;;;;;;;;5084433;28;20198;-77
2022/04/09 05:21:36;;;;;;;2.67;1.50;;;;;;;;;;5076927;28;20201;-76
2022/04/09 05:24:05;;;;;;;4.80;2.17;;;;;;;;;;5078924;28;20244;-76
2022/04/09 05:26:32;;;;;;;3.45;1.80;;;;;;;;;;5086740;28;20210;-76
2022/04/09 05:28:59;;;;;;;2.50;1.40;;;;;;;;;;5070852;28;21383;-76
2022/04/09 05:31:27;;;;;;;2.15;1.40;;;;;;;;;;5076092;28;20194;-75
2022/04/09 05:33:54;;;;;;;3.85;1.65;;;;;;;;;;5083850;28;20202;-75
2022/04/09 05:36:21;;;;;;;4.80;2.03;;;;;;;;;;5085536;28;20660;-75
2022/04/09 05:38:49;;;;;;;3.55;1.58;;;;;;;;;;5076765;28;20299;-75
2022/04/09 05:41:17;;;;;;;3.90;1.92;;;;;;;;;;5084860;28;20695;-75
2022/04/09 05:43:45;;;;;;;4.07;1.80;;;;;;;;;;5078200;28;20229;-78
2022/04/09 05:46:12;;;;;;;2.90;1.90;;;;;;;;;;5080775;28;20568;-76
2022/04/09 05:48:39;;;;;;;7.75;2.97;;;;;;;;;;5076616;28;20205;-75
2022/04/09 05:51:06;;;;;;;7.18;2.58;;;;;;;;;;5083276;28;20284;-75
2022/04/09 05:53:33;;;;;;;2.70;1.40;;;;;;;;;;5079215;28;20210;-76
2022/04/09 05:56:00;;;;;;;4.05;2.50;;;;;;;;;;5081317;28;20197;-74
2022/04/09 05:58:28;;;;;;;3.22;1.88;;;;;;;;;;5074539;28;20502;-75
2022/04/09 06:00:56;;;;;;;5.20;1.90;;;;;;;;;;5079161;28;20255;-75
2022/04/09 06:03:23;;;;;;;4.85;1.80;;;;;;;;;;5087533;28;20715;-74
2022/04/09 06:05:50;;;;;;;4.45;2.88;;;;;;;;;;5093724;28;20239;-74
2022/04/09 06:08:17;;;;;;;5.13;2.05;;;;;;;;;;5081136;28;20377;-74
2022/04/09 06:10:44;;;;;;;1.90;1.40;;;;;;;;;;5083803;28;20200;-76
2022/04/09 06:13:13;;;;;;;8.90;2.15;;;;;;;;;;5085748;28;20553;-75
2022/04/09 06:15:41;;;;;;;4.40;1.50;;;;;;;;;;5084397;28;20194;-76
2022/04/09 06:18:10;;;;;;;3.38;1.48;;;;;;;;;;5088026;28;20221;-76
2022/04/09 06:20:38;;;;;;;4.93;1.38;;;;;;;;;;5085062;28;20205;-75
2022/04/09 06:23:06;;;;;;;8.57;2.08;;;;;;;;;;5076357;28;20201;-77
2022/04/09 06:25:33;;;;;;;6.03;2.03;;;;;;;;;;5088986;28;20701;-75
2022/04/09 06:28:00;;;;;;;6.93;2.10;;;;;;;;;;5079777;28;20240;-76
2022/04/09 06:30:27;;;;;;;4.97;1.75;;;;;;;;;;5082443;28;20209;-73
2022/04/09 06:32:56;;;;;;;4.72;2.30;;;;;;;;;;5078127;28;20193;-73
2022/04/09 06:35:24;;;;;;;8.15;2.50;;;;;;;;;;5081308;28;20217;-74
2022/04/09 06:37:52;;;;;;;6.10;1.90;;;;;;;;;;5082813;28;20210;-74
2022/04/09 06:40:19;;;;;;;4.45;1.70;;;;;;;;;;5082105;28;20198;-73
2022/04/09 06:42:46;;;;;;;9.52;2.38;;;;;;;;;;5084654;28;20198;-73
2022/04/09 06:45:15;;;;;;;9.23;1.80;;;;;;;;;;5084750;28;20217;-77
2022/04/09 06:47:42;;;;;;;5.65;1.73;;;;;;;;;;5077872;28;20292;-74
2022/04/09 06:50:11;;;;;;;4.32;2.20;;;;;;;;;;5073207;28;20194;-74
2022/04/09 06:52:39;;;;;;;1.77;1.27;;;;;;;;;;5071732;28;20205;-77
2022/04/09 06:55:07;;;;;;;5.50;1.67;;;;;;;;;;5085523;28;20564;-74
2022/04/09 06:57:35;;;;;;;3.45;1.80;;;;;;;;;;5089176;28;20624;-76
2022/04/09 07:00:03;;;;;;;2.50;1.45;;;;;;;;;;5076255;28;20209;-76
2022/04/09 07:02:30;;;;;;;1.95;1.23;;;;;;;;;;5085189;28;20201;-74
2022/04/09 07:04:57;;;;;;;2.22;1.88;;;;;;;;;;5078161;28;20214;-74
2022/04/09 07:07:26;;;;;;;2.58;1.33;;;;;;;;;;5075770;28;20198;-74
2022/04/09 07:09:54;;;;;;;2.15;1.50;;;;;;;;;;5081075;28;20216;-74
2022/04/09 07:12:22;;;;;;;6.57;1.73;;;;;;;;;;5076875;28;20197;-74
2022/04/09 07:14:49;;;;;;;3.08;1.38;;;;;;;;;;5078954;28;20759;-75
2022/04/09 07:17:20;;;;;;;6.45;1.75;;;;;;;;;;5084118;28;20284;-75
2022/04/09 07:19:47;;;;;;;6.05;1.73;;;;;;;;;;5080012;28;20221;-75
2022/04/09 07:22:15;;;;;;;3.28;1.67;;;;;;;;;;5077978;28;20197;-74
2022/04/09 07:24:43;;;;;;;7.47;1.65;;;;;;;;;;5087805;28;20273;-75
2022/04/09 07:27:10;;;;;;;9.95;1.98;;;;;;;;;;5085211;28;20190;-75
2022/04/09 07:29:37;;;;;;;4.32;1.48;;;;;;;;;;5076036;28;20724;-76
2022/04/09 07:32:05;;;;;;;3.58;1.90;;;;;;;;;;5077042;28;20564;-76
2022/04/09 07:34:32;;;;;;;2.83;1.60;;;;;;;;;;5080979;28;20197;-77
2022/04/09 07:36:59;;;;;;;5.47;2.25;;;;;;;;;;5074052;28;20499;-77
2022/04/09 07:39:26;;;;;;;2.72;1.40;;;;;;;;;;5072966;28;20194;-76
2022/04/09 07:41:54;;;;;;;7.60;3.20;;;;;;;;;;5087865;28;20208;-78
2022/04/09 07:44:22;;;;;;;4.60;1.85;;;;;;;;;;5081007;28;20279;-78
2022/04/09 07:46:49;;;;;;;4.43;1.60;;;;;;;;;;5084826;28;20198;-85
2022/04/09 07:49:16;;;;;;;3.10;1.90;;;;;;;;;;5084716;28;20201;-75
2022/04/09 07:51:43;;;;;;;3.08;1.52;;;;;;;;;;5082245;28;20194;-75
2022/04/09 07:54:10;;;;;;;4.82;2.40;;;;;;;;;;5087270;28;20197;-74
2022/04/09 07:56:37;;;;;;;4.03;1.60;;;;;;;;;;5075421;28;20196;-74
2022/04/09 07:59:06;;;;;;;4.70;1.67;;;;;;;;;;5070160;28;20197;-75
2022/04/09 08:01:33;;;;;;;3.28;1.60;;;;;;;;;;5075343;28;20201;-74
2022/04/09 08:04:00;;;;;;;3.42;1.58;;;;;;;;;;5077755;28;20220;-75
2022/04/09 08:06:27;;;;;;;4.20;1.73;;;;;;;;;;5086962;28;20294;-75
2022/04/09 08:08:54;;;;;;;2.10;1.30;;;;;;;;;;5078248;28;20209;-75
2022/04/09 08:11:21;;;;;;;3.17;1.63;;;;;;;;;;5075091;28;20210;-75
2022/04/09 08:13:49;;;;;;;2.95;1.77;;;;;;;;;;5078484;28;20208;-75
2022/04/09 08:16:17;;;;;;;2.53;1.55;;;;;;;;;;5081972;28;20636;-75
2022/04/09 08:18:44;;;;;;;5.22;1.65;;;;;;;;;;5082662;28;20197;-74
2022/04/09 08:21:12;;;;;;;2.75;1.58;;;;;;;;;;5074394;28;20202;-74
2022/04/09 08:23:40;;;;;;;5.22;1.40;;;;;;;;;;5082217;28;20209;-75
2022/04/09 08:26:07;;;;;;;2.47;1.92;;;;;;;;;;5075750;28;20259;-75
2022/04/09 08:28:36;;;;;;;3.25;1.45;;;;;;;;;;5084778;28;20428;-74
2022/04/09 08:31:03;;;;;;;4.30;1.67;;;;;;;;;;5083698;28;20199;-75
2022/04/09 08:33:32;;;;;;;3.03;1.83;;;;;;;;;;5074907;28;20657;-75
2022/04/09 08:35:59;;;;;;;4.05;1.40;;;;;;;;;;5076224;28;20857;-75
2022/04/09 08:38:26;;;;;;;6.65;1.35;;;;;;;;;;5073874;28;20198;-74
2022/04/09 08:40:53;;;;;;;1.52;1.35;;;;;;;;;;5083547;28;20201;-78
2022/04/09 08:43:20;;;;;;;4.85;1.50;;;;;;;;;;5085847;28;20797;-74
2022/04/09 08:45:47;;;;;;;6.85;2.00;;;;;;;;;;5075104;28;20254;-74
2022/04/09 08:48:15;;;;;;;3.00;1.52;;;;;;;;;;5085761;28;20201;-76
2022/04/09 08:50:45;;;;;;;3.70;1.20;;;;;;;;;;5081506;28;20208;-76
2022/04/09 08:53:12;;;;;;;3.67;1.30;;;;;;;;;;5071723;28;20885;-74
2022/04/09 08:55:40;;;;;;;2.78;1.98;;;;;;;;;;5073790;28;20564;-75
2022/04/09 08:58:08;;;;;;;10.10;1.40;;;;;;;;;;5073372;28;20248;-75
2022/04/09 09:00:35;;;;;;;5.18;1.50;;;;;;;;;;5076448;28;20283;-77
2022/04/09 09:03:03;;;;;;;4.90;1.95;;;;;;;;;;5077763;28;20644;-75
2022/04/09 09:05:34;;;;;;;3.00;1.45;;;;;;;;;;5077754;28;20417;-76
2022/04/09 09:08:03;;;;;;;2.47;1.48;;;;;;;;;;5077178;28;20201;-75
2022/04/09 09:10:30;;;;;;;13.77;2.97;;;;;;;;;;5072196;28;20198;-75
2022/04/09 09:12:58;;;;;;;2.60;1.27;;;;;;;;;;5072956;28;20202;-74
2022/04/09 09:15:25;;;;;;;3.42;1.30;;;;;;;;;;5070701;28;20271;-76
2022/04/09 09:17:56;;;;;;;1.92;1.15;;;;;;;;;;5087365;28;20201;-75
2022/04/09 09:20:24;;;;;;;6.15;1.35;;;;;;;;;;5076085;28;20644;-75
2022/04/09 09:22:52;;;;;;;2.67;1.40;;;;;;;;;;5084934;28;20248;-76
2022/04/09 09:25:20;;;;;;;2.42;1.35;;;;;;;;;;5071588;28;20217;-76
2022/04/09 09:27:57;;;;;;;2.78;1.60;;;;;;;;;;5076196;28;20213;-75
2022/04/09 09:30:24;;;;;;;4.65;1.13;;;;;;;;;;5081345;28;20314;-75
2022/04/09 09:33:06;;;;;;;5.70;1.30;;;;;;;;;;5089795;28;20198;-75
2022/04/09 09:35:48;;;;;;;4.93;1.30;;;;;;;;;;5072014;28;20190;-75
2022/04/09 09:38:21;;;;;;;2.40;1.30;;;;;;;;;;5074508;28;20194;-77
2022/04/09 09:40:50;;;;;;;2.40;1.45;;;;;;;;;;5073654;28;20202;-73
2022/04/09 09:43:17;;;;;;;2.60;1.27;;;;;;;;;;5081750;28;20201;-76
2022/04/09 09:45:45;;;;;;;4.15;1.45;;;;;;;;;;5079816;28;20225;-74
2022/04/09 09:48:24;;;;;;;3.25;1.40;;;;;;;;;;5081460;28;20693;-75
2022/04/09 09:50:52;;;;;;;3.83;1.40;;;;;;;;;;5074999;28;20208;-76
2022/04/09 09:53:27;;;;;;;2.50;1.45;;;;;;;;;;5073591;28;20202;-75
2022/04/09 09:55:56;;;;;;;1.92;1.08;;;;;;;;;;5080646;28;20236;-74
2022/04/09 09:58:24;;;;;;;4.63;1.25;;;;;;;;;;5076228;28;20876;-75
2022/04/09 10:00:51;;;;;;;4.28;2.78;;;;;;;;;;5078548;28;20206;-74
2022/04/09 10:03:20;;;;;;;4.05;1.30;;;;;;;;;;5081010;28;20565;-73
2022/04/09 10:05:49;;;;;;;2.05;1.10;;;;;;;;;;5083103;28;20695;-74
2022/04/09 10:08:16;;;;;;;2.70;0.95;;;;;;;;;;5071517;28;20190;-75
2022/04/09 10:10:48;;;;;;;2.83;1.00;;;;;;;;;;5077041;28;20666;-75
2022/04/09 10:13:17;;;;;;;2.80;1.30;;;;;;;;;;5081029;28;20200;-75
2022/04/09 10:15:46;;;;;;;3.05;1.00;;;;;;;;;;5090259;28;20204;-75
2022/04/09 10:18:14;;;;;;;1.13;1.00;;;;;;;;;;5080654;28;20204;-74
2022/04/09 10:20:42;;;;;;;4.55;1.58;;;;;;;;;;5075212;28;20202;-74
2022/04/09 10:23:10;;;;;;;2.05;1.10;;;;;;;;;;5086748;28;20308;-73
2022/04/09 10:25:40;;;;;;;2.10;1.15;;;;;;;;;;5082681;28;20723;-74
2022/04/09 10:28:08;;;;;;;1.50;1.20;;;;;;;;;;5072016;28;20306;-74
2022/04/09 10:30:40;;;;;;;1.80;1.10;;;;;;;;;;5079306;28;20206;-73
2022/04/09 10:33:22;;;;;;;2.65;1.02;;;;;;;;;;5084656;28;20197;-74
2022/04/09 10:35:49;;;;;;;2.15;0.90;;;;;;;;;;5089458;28;20568;-73
2022/04/09 10:38:17;;;;;;;1.15;0.90;;;;;;;;;;5079345;28;20653;-74
2022/04/09 10:41:02;;;;;;;1.10;1.00;;;;;;;;;;5079467;28;20198;-76
2022/04/09 10:43:47;;;;;;;1.20;1.10;;;;;;;;;;5074990;28;20213;-74
2022/04/09 10:46:21;;;;;;;1.70;1.00;;;;;;;;;;5077027;28;20221;-74
2022/04/09 10:48:49;;;;;;;2.30;1.00;;;;;;;;;;5072795;28;20198;-75
2022/04/09 10:51:16;;;;;;;2.78;1.55;;;;;;;;;;5081693;28;20198;-77
2022/04/09 10:53:44;;;;;;;1.60;1.10;;;;;;;;;;5081810;28;20292;-74
2022/04/09 10:56:17;;;;;;;1.73;1.20;;;;;;;;;;5084574;28;20198;-73
2022/04/09 10:59:00;;;;;;;6.28;1.15;;;;;;;;;;5069296;28;20688;-75
2022/04/09 11:01:47;;;;;;;1.13;1.00;;;;;;;;;;5069198;28;20201;-74
2022/04/09 11:04:32;;;;;;;2.28;1.30;;;;;;;;;;5078395;28;20212;-75
2022/04/09 11:07:03;;;;;;;1.35;0.80;;;;;;;;;;5066437;28;20245;-74
2022/04/09 11:09:41;;;;;;;2.25;0.80;;;;;;;;;;5073687;28;20206;-74
2022/04/09 11:12:08;;;;;;;1.63;1.17;;;;;;;;;;5074738;28;20233;-76
2022/04/09 11:14:42;;;;;;;1.73;1.00;;;;;;;;;;5073369;28;20206;-74
2022/04/09 11:17:15;;;;;;;1.27;0.77;;;;;;;;;;5078193;28;20221;-75
2022/04/09 11:19:43;;;;;;;6.20;1.52;;;;;;;;;;5081587;28;20220;-73
2022/04/09 11:22:12;;;;;;;4.07;0.98;;;;;;;;;;5073477;28;20293;-75
2022/04/09 11:24:39;;;;;;;2.10;0.93;;;;;;;;;;5086281;28;20605;-75
2022/04/09 11:27:07;;;;;;;3.67;0.90;;;;;;;;;;5078505;28;20225;-76
2022/04/09 11:29:34;;;;;;;1.20;0.82;;;;;;;;;;5074175;28;20222;-74
2022/04/09 11:32:02;;;;;;;2.38;0.80;;;;;;;;;;5074572;28;20197;-74
2022/04/09 11:34:29;;;;;;;3.35;1.00;;;;;;;;;;5079072;28;20206;-76
2022/04/09 11:37:11;;;;;;;1.42;1.10;;;;;;;;;;5082058;28;20198;-73
2022/04/09 11:39:40;;;;;;;1.00;0.82;;;;;;;;;;5073193;28;20561;-74
2022/04/09 11:42:07;;;;;;;1.30;0.73;;;;;;;;;;5086883;28;20261;-75
2022/04/09 11:44:35;;;;;;;1.30;0.80;;;;;;;;;;5089334;28;20247;-73
2022/04/09 11:47:08;;;;;;;1.70;1.10;;;;;;;;;;5080569;28;20213;-74
2022/04/09 11:49:36;;;;;;;1.95;0.80;;;;;;;;;;5076387;28;20247;-74
2022/04/09 11:52:03;;;;;;;1.63;1.00;;;;;;;;;;5077015;28;20190;-75
2022/04/09 11:54:33;;;;;;;1.92;0.95;;;;;;;;;;5081615;28;20201;-73
2022/04/09 11:57:03;;;;;;;1.65;1.00;;;;;;;;;;5089543;28;20193;-72
2022/04/09 11:59:31;;;;;;;1.60;0.95;;;;;;;;;;5078583;28;20202;-74
2022/04/09 12:01:58;;;;;;;1.63;1.00;;;;;;;;;;5077741;28;20245;-73
2022/04/09 12:04:25;;;;;;;1.70;0.80;;;;;;;;;;5075655;28;20569;-73
2022/04/09 12:06:52;;;;;;;1.67;1.00;;;;;;;;;;5082418;28;20612;-74
2022/04/09 12:09:21;;;;;;;1.60;0.82;;;;;;;;;;5084610;28;20193;-74
2022/04/09 12:11:52;;;;;;;1.65;0.98;;;;;;;;;;5084147;28;20287;-73
2022/04/09 12:14:21;;;;;;;4.00;1.15;;;;;;;;;;5074834;28;20201;-74
2022/04/09 12:16:48;;;;;;;2.63;1.15;;;;;;;;;;5087504;28;20194;-74
2022/04/09 12:19:15;;;;;;;3.65;1.13;;;;;;;;;;5082199;28;20644;-73
2022/04/09 12:21:43;;;;;;;1.45;1.00;;;;;;;;;;5077280;28;20204;-74
2022/04/09 12:24:11;;;;;;;1.10;0.80;;;;;;;;;;5078926;28;20206;-75
2022/04/09 12:26:39;;;;;;;1.55;0.90;;;;;;;;;;5079493;28;20217;-74
2022/04/09 12:29:08;;;;;;;1.10;0.80;;;;;;;;;;5074844;28;20309;-74
2022/04/09 12:31:37;;;;;;;2.10;0.90;;;;;;;;;;5076643;28;20513;-76
2022/04/09 12:34:05;;;;;;;1.20;0.90;;;;;;;;;;5067194;28;20208;-74
2022/04/09 12:36:32;;;;;;;1.00;0.80;;;;;;;;;;5083518;28;20197;-76
2022/04/09 12:39:00;;;;;;;2.45;0.70;;;;;;;;;;5068634;28;20204;-75
2022/04/09 12:41:27;;;;;;;1.35;0.80;;;;;;;;;;5073291;28;20648;-75
2022/04/09 12:43:56;;;;;;;1.63;1.15;;;;;;;;;;5075067;28;20209;-74
2022/04/09 12:46:24;;;;;;;1.25;1.15;;;;;;;;;;5077618;28;20232;-73
2022/04/09 12:48:53;;;;;;;0.95;0.70;;;;;;;;;;5072982;28;20595;-74
2022/04/09 12:51:21;;;;;;;0.88;0.68;;;;;;;;;;5067999;28;20198;-75
2022/04/09 12:53:49;;;;;;;1.40;1.00;;;;;;;;;;5076045;28;20244;-76
2022/04/09 12:56:17;;;;;;;1.20;0.68;;;;;;;;;;5087085;28;20528;-75
2022/04/09 12:58:45;;;;;;;1.40;0.80;;;;;;;;;;5074228;28;20201;-75
2022/04/09 13:01:13;;;;;;;2.03;0.82;;;;;;;;;;5067998;28;20204;-76
2022/04/09 13:03:41;;;;;;;1.50;1.00;;;;;;;;;;5074946;28;20692;-74
2022/04/09 13:06:09;;;;;;;2.15;0.80;;;;;;;;;;5069774;28;20685;-74
2022/04/09 13:08:36;;;;;;;2.13;0.90;;;;;;;;;;5073234;28;20202;-75
2022/04/09 13:11:05;;;;;;;3.05;1.17;;;;;;;;;;5079066;28;20653;-73
2022/04/09 13:13:32;;;;;;;1.42;1.10;;;;;;;;;;5080780;28;20205;-74
2022/04/09 13:15:59;;;;;;;1.00;0.80;;;;;;;;;;5082993;28;20190;-74
2022/04/09 13:18:26;;;;;;;1.10;0.80;;;;;;;;;;5081378;28;20319;-73
2022/04/09 13:20:53;;;;;;;1.52;1.08;;;;;;;;;;5092305;28;20665;-74
2022/04/09 13:23:22;;;;;;;1.42;0.88;;;;;;;;;;5088457;28;20201;-73
2022/04/09 13:25:49;;;;;;;1.52;0.80;;;;;;;;;;5081167;28;20218;-75
2022/04/09 13:28:16;;;;;;;4.22;0.80;;;;;;;;;;5084048;28;20213;-74
2022/04/09 13:30:43;;;;;;;1.10;0.90;;;;;;;;;;5082535;28;20213;-74
2022/04/09 13:33:10;;;;;;;1.08;0.80;;;;;;;;;;5075145;28;20213;-73
2022/04/09 13:35:38;;;;;;;1.23;0.85;;;;;;;;;;5090119;28;20712;-74
2022/04/09 13:38:05;;;;;;;1.00;0.80;;;;;;;;;;5084021;28;20747;-75
2022/04/09 13:40:34;;;;;;;2.03;1.00;;;;;;;;;;5085838;28;20194;-74
2022/04/09 13:43:02;;;;;;;2.38;0.90;;;;;;;;;;5087404;28;20194;-74
2022/04/09 13:45:29;;;;;;;1.00;0.82;;;;;;;;;;5079043;28;20197;-76
2022/04/09 13:47:56;;;;;;;1.10;0.80;;;;;;;;;;5087595;28;20197;-74
2022/04/09 13:50:23;;;;;;;0.88;0.60;;;;;;;;;;5081807;28;20652;-75
2022/04/09 13:52:50;;;;;;;2.88;0.98;;;;;;;;;;5078936;28;20229;-75
2022/04/09 13:55:18;;;;;;;0.80;0.70;;;;;;;;;;5079749;28;20692;-74
2022/04/09 13:57:46;;;;;;;1.13;0.80;;;;;;;;;;5087929;28;20197;-74
2022/04/09 14:00:14;;;;;;;1.17;0.80;;;;;;;;;;5074630;28;20592;-76
2022/04/09 14:02:41;;;;;;;1.75;0.80;;;;;;;;;;5089242;28;20213;-75
2022/04/09 14:05:09;;;;;;;1.52;0.82;;;;;;;;;;5089379;28;20223;-75
2022/04/09 14:07:37;;;;;;;1.00;0.80;;;;;;;;;;5078793;28;20240;-74
2022/04/09 14:10:04;;;;;;;1.20;1.00;;;;;;;;;;5084214;28;20667;-75
2022/04/09 14:12:32;;;;;;;0.90;0.70;;;;;;;;;;5085958;28;20331;-75
2022/04/09 14:15:00;;;;;;;2.03;0.80;;;;;;;;;;5080913;28;20232;-75
2022/04/09 14:17:27;;;;;;;1.33;1.10;;;;;;;;;;5078886;28;20190;-76
2022/04/09 14:19:55;;;;;;;3.40;1.52;;;;;;;;;;5082550;28;20193;-74
2022/04/09 14:22:22;;;;;;;1.15;0.98;;;;;;;;;;5081747;28;20640;-74
2022/04/09 14:24:49;;;;;;;1.65;1.55;;;;;;;;;;5084053;28;20572;-75
2022/04/09 14:27:17;;;;;;;0.80;0.70;;;;;;;;;;5079214;28;20218;-76
2022/04/09 14:29:44;;;;;;;1.75;0.80;;;;;;;;;;5082115;28;20209;-77
2022/04/09 14:32:12;;;;;;;1.95;0.80;;;;;;;;;;5074821;28;20195;-75
2022/04/09 14:34:39;;;;;;;1.10;0.80;;;;;;;;;;5076095;28;20203;-74
2022/04/09 14:37:06;;;;;;;1.98;0.88;;;;;;;;;;5079931;28;20667;-77
2022/04/09 14:39:34;;;;;;;1.80;0.90;;;;;;;;;;5086006;28;20205;-75
2022/04/09 14:42:01;;;;;;;3.75;1.13;;;;;;;;;;5086820;28;20205;-74
2022/04/09 14:44:28;;;;;;;1.00;0.80;;;;;;;;;;5088964;28;20668;-75
2022/04/09 14:46:57;;;;;;;2.20;0.75;;;;;;;;;;5084599;28;20597;-75
2022/04/09 14:49:26;;;;;;;1.10;0.80;;;;;;;;;;5085021;28;20233;-74
2022/04/09 14:51:54;;;;;;;1.45;1.00;;;;;;;;;;5084694;28;20673;-75